createdAt,value
2023-04-23T00:00:17.699Z,1.96
2023-04-23T00:02:44.270Z,2.18
2023-04-23T00:05:10.762Z,1.92
2023-04-23T00:07:37.067Z,2.06
2023-04-23T00:10:03.829Z,1.98
2023-04-23T00:12:30.126Z,2.01
2023-04-23T00:14:56.615Z,1.91
2023-04-23T00:17:23.010Z,1.87
2023-04-23T00:19:49.447Z,1.76
2023-04-23T00:22:15.869Z,1.72
2023-04-23T00:24:42.306Z,1.80
2023-04-23T00:27:08.871Z,1.83
2023-04-23T00:29:35.211Z,1.80
2023-04-23T00:32:01.620Z,1.94
2023-04-23T00:34:28.020Z,1.84
2023-04-23T00:36:54.320Z,1.71
2023-04-23T00:39:20.618Z,1.75
2023-04-23T00:41:46.924Z,1.72
2023-04-23T00:44:13.235Z,1.68
2023-04-23T00:46:39.608Z,1.77
2023-04-23T00:49:05.954Z,1.68
2023-04-23T00:51:32.361Z,1.89
2023-04-23T00:53:58.698Z,1.71
2023-04-23T00:56:25.003Z,1.70
2023-04-23T00:58:51.354Z,1.71
2023-04-23T01:01:17.765Z,1.62
2023-04-23T01:03:44.265Z,1.92
2023-04-23T01:06:10.671Z,1.60
2023-04-23T01:08:37.045Z,1.62
2023-04-23T01:11:03.397Z,1.53
2023-04-23T01:13:29.903Z,1.67
2023-04-23T01:15:56.315Z,1.70
2023-04-23T01:18:22.716Z,1.59
2023-04-23T01:20:49.052Z,1.42
2023-04-23T01:23:15.365Z,1.34
2023-04-23T01:25:41.661Z,1.63
2023-04-23T01:28:07.988Z,1.49
2023-04-23T01:30:34.346Z,1.49
2023-04-23T01:33:00.744Z,1.32
2023-04-23T01:35:27.127Z,1.43
2023-04-23T01:37:53.482Z,1.37
2023-04-23T01:40:19.810Z,1.44
2023-04-23T01:42:46.200Z,1.46
2023-04-23T01:45:12.512Z,1.44
2023-04-23T01:47:38.892Z,1.26
2023-04-23T01:50:05.202Z,1.35
2023-04-23T01:52:31.677Z,1.18
2023-04-23T01:54:58.031Z,1.21
2023-04-23T01:57:24.423Z,1.32
2023-04-23T01:59:50.759Z,1.25
2023-04-23T02:02:17.163Z,1.22
2023-04-23T02:04:43.908Z,1.23
2023-04-23T02:07:10.489Z,1.32
2023-04-23T02:09:36.825Z,1.22
2023-04-23T02:12:03.184Z,1.23
2023-04-23T02:14:29.575Z,1.20
2023-04-23T02:16:55.960Z,1.38
2023-04-23T02:19:22.301Z,1.13
2023-04-23T02:21:48.649Z,1.17
2023-04-23T02:24:15.000Z,1.19
2023-04-23T02:26:41.309Z,1.23
2023-04-23T02:29:07.702Z,1.32
2023-04-23T02:31:34.047Z,1.22
2023-04-23T02:34:00.486Z,1.20
2023-04-23T02:36:26.856Z,1.32
2023-04-23T02:38:53.161Z,1.35
2023-04-23T02:41:19.465Z,1.36
2023-04-23T02:43:45.786Z,1.22
2023-04-23T02:46:12.074Z,1.14
2023-04-23T02:48:38.420Z,1.29
2023-04-23T02:51:04.762Z,1.18
2023-04-23T02:53:31.062Z,1.23
2023-04-23T02:55:57.413Z,1.20
2023-04-23T02:58:23.790Z,1.22
2023-04-23T03:00:50.198Z,1.13
2023-04-23T03:03:16.933Z,1.17
2023-04-23T03:05:43.393Z,1.11
2023-04-23T03:08:09.716Z,1.14
2023-04-23T03:10:36.047Z,1.30
2023-04-23T03:13:02.374Z,1.16
2023-04-23T03:15:28.681Z,1.05
2023-04-23T03:17:55.032Z,1.18
2023-04-23T03:20:21.352Z,1.24
2023-04-23T03:22:47.649Z,1.20
2023-04-23T03:25:14.014Z,1.28
2023-04-23T03:27:40.463Z,1.16
2023-04-23T03:30:06.875Z,1.26
2023-04-23T03:32:33.303Z,1.23
2023-04-23T03:34:59.708Z,1.17
2023-04-23T03:37:26.074Z,1.22
2023-04-23T03:39:52.379Z,1.39
2023-04-23T03:42:18.674Z,1.22
2023-04-23T03:44:45.060Z,1.39
2023-04-23T03:47:11.397Z,1.29
2023-04-23T03:49:37.714Z,1.14
2023-04-23T03:52:04.093Z,1.31
2023-04-23T03:54:30.445Z,1.17
2023-04-23T03:56:56.809Z,1.20
2023-04-23T03:59:23.167Z,1.32
2023-04-23T04:01:49.536Z,1.37
2023-04-23T04:04:16.070Z,1.28
2023-04-23T04:06:42.846Z,1.33
2023-04-23T04:09:09.173Z,1.14
2023-04-23T04:11:35.535Z,1.22
2023-04-23T04:14:01.836Z,1.29
2023-04-23T04:16:28.200Z,1.17
2023-04-23T04:18:56.353Z,1.24
2023-04-23T04:21:23.058Z,1.25
2023-04-23T04:23:49.404Z,1.12
2023-04-23T04:26:15.754Z,1.17
2023-04-23T04:28:42.091Z,1.26
2023-04-23T04:31:08.474Z,1.32
2023-04-23T04:33:34.823Z,1.26
2023-04-23T04:36:01.136Z,1.35
2023-04-23T04:38:27.480Z,1.30
2023-04-23T04:40:53.847Z,1.34
2023-04-23T04:43:20.163Z,1.42
2023-04-23T04:45:46.460Z,1.31
2023-04-23T04:48:12.768Z,1.29
2023-04-23T04:50:39.118Z,1.48
2023-04-23T04:53:05.423Z,1.28
2023-04-23T04:55:31.727Z,1.27
2023-04-23T04:57:58.065Z,1.22
2023-04-23T05:00:24.420Z,1.34
2023-04-23T05:02:50.892Z,1.28
2023-04-23T05:05:17.337Z,1.37
2023-04-23T05:07:43.709Z,1.42
2023-04-23T05:10:10.049Z,1.40
2023-04-23T05:12:36.397Z,1.46
2023-04-23T05:15:02.719Z,1.36
2023-04-23T05:17:29.149Z,1.34
2023-04-23T05:19:55.500Z,1.24
2023-04-23T05:22:21.839Z,1.23
2023-04-23T05:24:48.177Z,1.26
2023-04-23T05:27:14.543Z,1.37
2023-04-23T05:29:40.871Z,1.38
2023-04-23T05:32:07.197Z,1.30
2023-04-23T05:34:33.566Z,1.39
2023-04-23T05:36:59.981Z,1.34
2023-04-23T05:39:26.336Z,1.38
2023-04-23T05:41:52.644Z,1.35
2023-04-23T05:44:18.979Z,1.49
2023-04-23T05:46:45.348Z,1.31
2023-04-23T05:49:11.670Z,1.21
2023-04-23T05:51:38.019Z,1.30
2023-04-23T05:54:04.391Z,1.47
2023-04-23T05:56:30.754Z,1.47
2023-04-23T05:58:57.124Z,1.52
2023-04-23T06:01:23.485Z,1.23
2023-04-23T06:03:50.024Z,1.19
2023-04-23T06:06:16.542Z,1.34
2023-04-23T06:08:42.931Z,1.48
2023-04-23T06:11:09.316Z,1.43
2023-04-23T06:13:35.669Z,1.66
2023-04-23T06:16:01.987Z,1.62
2023-04-23T06:18:28.305Z,1.37
2023-04-23T06:20:54.708Z,1.54
2023-04-23T06:23:21.073Z,1.43
2023-04-23T06:25:47.433Z,1.41
2023-04-23T06:28:14.875Z,1.46
2023-04-23T06:30:41.219Z,1.44
2023-04-23T06:33:07.579Z,1.39
2023-04-23T06:35:33.919Z,1.34
2023-04-23T06:38:00.307Z,1.43
2023-04-23T06:40:27.108Z,1.50
2023-04-23T06:42:53.526Z,1.39
2023-04-23T06:45:19.892Z,1.40
2023-04-23T06:47:46.215Z,1.41
2023-04-23T06:50:12.624Z,1.29
2023-04-23T06:52:38.988Z,1.36
2023-04-23T06:55:05.357Z,1.32
2023-04-23T06:57:31.735Z,1.30
2023-04-23T06:59:58.111Z,1.44
2023-04-23T07:02:24.489Z,1.28
2023-04-23T07:04:51.146Z,1.42
2023-04-23T07:07:17.521Z,1.48
2023-04-23T07:09:43.884Z,1.51
2023-04-23T07:12:10.248Z,1.36
2023-04-23T07:14:36.587Z,1.47
2023-04-23T07:17:02.946Z,1.37
2023-04-23T07:19:29.301Z,1.39
2023-04-23T07:21:55.675Z,1.44
2023-04-23T07:24:22.047Z,1.45
2023-04-23T07:26:48.426Z,1.43
2023-04-23T07:29:14.740Z,1.42
2023-04-23T07:31:41.141Z,1.57
2023-04-23T07:34:07.478Z,1.50
2023-04-23T07:36:33.790Z,1.62
2023-04-23T07:39:00.227Z,1.64
2023-04-23T07:41:26.553Z,1.48
2023-04-23T07:43:52.844Z,1.54
2023-04-23T07:46:19.193Z,1.58
2023-04-23T07:48:45.605Z,1.49
2023-04-23T07:51:11.920Z,1.50
2023-04-23T07:53:38.273Z,1.70
2023-04-23T07:56:04.600Z,1.67
2023-04-23T07:58:30.914Z,1.74
2023-04-23T08:00:57.259Z,1.59
2023-04-23T08:03:23.751Z,1.63
2023-04-23T08:05:50.388Z,1.84
2023-04-23T08:08:16.696Z,1.76
2023-04-23T08:10:43.041Z,1.78
2023-04-23T08:13:09.420Z,1.86
2023-04-23T08:15:35.794Z,1.67
2023-04-23T08:18:02.221Z,1.91
2023-04-23T08:20:28.584Z,1.93
2023-04-23T08:22:54.910Z,1.61
2023-04-23T08:25:21.326Z,1.66
2023-04-23T08:27:47.648Z,1.91
2023-04-23T08:30:14.049Z,1.96
2023-04-23T08:32:40.467Z,1.94
2023-04-23T08:35:06.838Z,1.87
2023-04-23T08:37:33.160Z,1.89
2023-04-23T08:39:59.461Z,1.82
2023-04-23T08:42:25.810Z,1.90
2023-04-23T08:44:52.127Z,2.04
2023-04-23T08:47:18.446Z,1.95
2023-04-23T08:49:44.776Z,1.70
2023-04-23T08:52:11.148Z,2.04
2023-04-23T08:54:37.504Z,2.02
2023-04-23T08:57:03.830Z,2.00
2023-04-23T08:59:30.141Z,2.04
2023-04-23T09:01:56.573Z,1.89
2023-04-23T09:04:22.952Z,2.06
2023-04-23T09:06:49.306Z,2.06
2023-04-23T09:09:15.634Z,2.03
2023-04-23T09:11:41.998Z,2.07
2023-04-23T09:14:08.316Z,2.26
2023-04-23T09:16:34.660Z,2.10
2023-04-23T09:19:01.014Z,2.18
2023-04-23T09:21:27.340Z,2.16
2023-04-23T09:23:53.651Z,2.04
2023-04-23T09:26:20.041Z,2.19
2023-04-23T09:28:47.494Z,2.23
2023-04-23T09:31:15.312Z,2.25
2023-04-23T09:33:41.688Z,2.23
2023-04-23T09:36:07.999Z,2.43
2023-04-23T09:38:34.376Z,2.43
2023-04-23T09:41:00.751Z,2.35
2023-04-23T09:43:27.132Z,2.37
2023-04-23T09:45:53.523Z,2.27
2023-04-23T09:48:19.874Z,2.37
2023-04-23T09:50:46.175Z,2.44
2023-04-23T09:53:12.501Z,2.34
2023-04-23T09:55:39.061Z,2.33
2023-04-23T09:58:05.789Z,2.38
2023-04-23T10:00:32.146Z,2.26
2023-04-23T10:02:58.531Z,2.49
2023-04-23T10:05:29.396Z,2.37
2023-04-23T10:08:03.408Z,2.50
2023-04-23T10:10:29.723Z,2.46
2023-04-23T10:12:56.119Z,2.58
2023-04-23T10:15:22.481Z,2.69
2023-04-23T10:17:48.892Z,2.38
2023-04-23T10:20:15.268Z,2.40
2023-04-23T10:22:41.592Z,2.65
2023-04-23T10:25:07.949Z,2.91
2023-04-23T10:27:44.608Z,3.70
2023-04-23T10:30:18.071Z,5.24
2023-04-23T10:32:44.378Z,8.66
2023-04-23T10:35:10.757Z,24.04
2023-04-23T10:37:37.175Z,33.69
2023-04-23T10:40:03.928Z,38.72
2023-04-23T10:42:30.297Z,29.88
2023-04-23T10:45:02.733Z,29.36
2023-04-23T10:47:33.817Z,29.56
2023-04-23T10:50:00.221Z,28.83
2023-04-23T10:52:26.612Z,32.86
2023-04-23T10:54:52.986Z,32.00
2023-04-23T10:57:19.373Z,26.60
2023-04-23T10:59:45.731Z,25.85
2023-04-23T11:02:12.121Z,26.75
2023-04-23T11:04:38.797Z,32.54
2023-04-23T11:07:05.215Z,26.15
2023-04-23T11:09:31.552Z,28.94
2023-04-23T11:11:57.912Z,27.07
2023-04-23T11:14:24.299Z,22.87
2023-04-23T11:16:50.708Z,20.28
2023-04-23T11:19:19.866Z,24.89
2023-04-23T11:21:46.966Z,21.35
2023-04-23T11:24:13.329Z,22.91
2023-04-23T11:26:39.689Z,20.86
2023-04-23T11:29:06.078Z,21.35
2023-04-23T11:31:32.450Z,18.71
2023-04-23T11:33:58.842Z,18.22
2023-04-23T11:36:25.233Z,24.28
2023-04-23T11:38:51.600Z,17.02
2023-04-23T11:41:18.888Z,16.41
2023-04-23T11:43:46.338Z,15.60
2023-04-23T11:46:12.793Z,17.87
2023-04-23T11:48:39.173Z,17.98
2023-04-23T11:51:05.508Z,14.75
2023-04-23T11:53:31.847Z,14.83
2023-04-23T11:55:58.215Z,14.47
2023-04-23T11:58:24.545Z,14.68
2023-04-23T12:00:50.876Z,13.45
2023-04-23T12:03:17.421Z,14.09
2023-04-23T12:05:43.987Z,13.80
2023-04-23T12:08:10.444Z,13.27
2023-04-23T12:10:36.822Z,14.24
2023-04-23T12:13:03.182Z,13.72
2023-04-23T12:15:29.510Z,12.65
2023-04-23T12:17:55.858Z,12.21
2023-04-23T12:20:22.309Z,12.21
2023-04-23T12:22:48.683Z,12.17
2023-04-23T12:25:14.991Z,11.75
2023-04-23T12:27:41.294Z,11.52
2023-04-23T12:30:07.621Z,10.96
2023-04-23T12:32:33.954Z,10.95
2023-04-23T12:35:00.307Z,10.68
2023-04-23T12:37:26.671Z,9.83
2023-04-23T12:39:53.109Z,9.49
2023-04-23T12:42:19.419Z,9.59
2023-04-23T12:44:45.765Z,9.92
2023-04-23T12:47:12.096Z,9.24
2023-04-23T12:49:38.430Z,8.97
2023-04-23T12:52:04.735Z,8.67
2023-04-23T12:54:31.095Z,8.71
2023-04-23T12:56:57.431Z,8.63
2023-04-23T12:59:23.874Z,8.28
2023-04-23T13:01:50.185Z,7.74
2023-04-23T13:04:16.559Z,8.29
2023-04-23T13:06:42.922Z,7.62
2023-04-23T13:09:09.244Z,7.06
2023-04-23T13:11:35.606Z,7.47
2023-04-23T13:14:01.920Z,7.02
2023-04-23T13:16:28.441Z,7.08
2023-04-23T13:18:54.861Z,6.62
2023-04-23T13:21:21.211Z,6.23
2023-04-23T13:23:47.525Z,6.45
2023-04-23T13:26:13.867Z,6.12
2023-04-23T13:28:40.266Z,6.15
2023-04-23T13:31:06.627Z,6.10
2023-04-23T13:33:32.963Z,5.98
2023-04-23T13:35:59.338Z,5.63
2023-04-23T13:38:25.650Z,6.07
2023-04-23T13:40:51.968Z,5.70
2023-04-23T13:43:18.295Z,5.43
2023-04-23T13:45:44.625Z,5.06
2023-04-23T13:48:10.974Z,5.43
2023-04-23T13:50:37.326Z,5.01
2023-04-23T13:53:03.900Z,4.56
2023-04-23T13:55:30.293Z,4.83
2023-04-23T13:57:56.681Z,4.53
2023-04-23T14:00:23.048Z,4.19
2023-04-23T14:02:49.489Z,4.24
2023-04-23T14:05:15.913Z,3.97
2023-04-23T14:07:42.241Z,4.10
2023-04-23T14:10:08.535Z,3.73
2023-04-23T14:12:34.901Z,3.94
2023-04-23T14:15:01.247Z,3.81
2023-04-23T14:17:27.592Z,3.59
2023-04-23T14:19:53.990Z,3.72
2023-04-23T14:22:20.306Z,3.56
2023-04-23T14:24:46.645Z,3.37
2023-04-23T14:27:12.999Z,3.28
2023-04-23T14:29:39.367Z,3.17
2023-04-23T14:32:05.896Z,3.05
2023-04-23T14:34:32.361Z,3.22
2023-04-23T14:36:58.680Z,3.03
2023-04-23T14:39:25.040Z,3.03
2023-04-23T14:41:51.430Z,2.81
2023-04-23T14:44:17.738Z,2.75
2023-04-23T14:46:44.113Z,2.70
2023-04-23T14:49:10.471Z,2.57
2023-04-23T14:51:36.815Z,2.84
2023-04-23T14:54:03.151Z,2.61
2023-04-23T14:56:29.499Z,2.49
2023-04-23T14:58:55.856Z,2.41
2023-04-23T15:01:22.262Z,2.18
2023-04-23T15:03:48.818Z,2.23
2023-04-23T15:06:15.290Z,2.23
2023-04-23T15:08:41.606Z,2.27
2023-04-23T15:11:07.961Z,2.18
2023-04-23T15:13:34.335Z,2.02
2023-04-23T15:16:00.712Z,2.08
2023-04-23T15:18:27.074Z,2.06
2023-04-23T15:20:53.435Z,1.87
2023-04-23T15:23:19.761Z,2.04
2023-04-23T15:25:46.055Z,1.87
2023-04-23T15:28:12.407Z,1.96
2023-04-23T15:30:38.774Z,2.00
2023-04-23T15:33:05.131Z,1.98
2023-04-23T15:35:31.548Z,1.81
2023-04-23T15:37:57.906Z,1.76
2023-04-23T15:40:24.241Z,1.86
2023-04-23T15:42:50.590Z,1.65
2023-04-23T15:45:16.938Z,1.52
2023-04-23T15:47:43.395Z,1.64
2023-04-23T15:50:09.776Z,1.70
2023-04-23T15:52:36.153Z,1.74
2023-04-23T15:55:02.526Z,1.63
2023-04-23T15:57:28.833Z,1.68
2023-04-23T15:59:55.165Z,1.78
2023-04-23T16:02:21.692Z,1.59
2023-04-23T16:04:48.175Z,1.59
2023-04-23T16:07:14.513Z,1.57
2023-04-23T16:09:41.042Z,1.64
2023-04-23T16:12:08.916Z,1.53
2023-04-23T16:14:36.555Z,1.48
2023-04-23T16:17:02.929Z,1.62
2023-04-23T16:19:29.261Z,1.55
2023-04-23T16:21:55.595Z,1.43
2023-04-23T16:24:21.954Z,1.49
2023-04-23T16:26:48.258Z,1.46
2023-04-23T16:29:22.118Z,1.55
2023-04-23T16:31:49.497Z,1.43
2023-04-23T16:34:15.843Z,1.57
2023-04-23T16:36:42.231Z,1.46
2023-04-23T16:39:08.641Z,1.42
2023-04-23T16:41:35.024Z,1.36
2023-04-23T16:44:01.387Z,1.49
2023-04-23T16:46:27.742Z,1.42
2023-04-23T16:48:54.077Z,1.42
2023-04-23T16:51:20.385Z,1.34
2023-04-23T16:53:46.785Z,1.44
2023-04-23T16:56:13.122Z,1.29
2023-04-23T16:58:39.461Z,1.37
2023-04-23T17:01:05.846Z,1.39
2023-04-23T17:03:32.267Z,1.28
2023-04-23T17:05:58.708Z,1.32
2023-04-23T17:08:25.044Z,1.41
2023-04-23T17:10:51.381Z,1.28
2023-04-23T17:13:17.724Z,1.29
2023-04-23T17:15:44.184Z,1.34
2023-04-23T17:18:11.902Z,1.28
2023-04-23T17:20:38.869Z,1.42
2023-04-23T17:23:05.234Z,1.46
2023-04-23T17:25:31.539Z,1.46
2023-04-23T17:27:57.881Z,1.49
2023-04-23T17:30:24.245Z,1.54
2023-04-23T17:32:50.797Z,1.65
2023-04-23T17:35:17.198Z,1.66
2023-04-23T17:37:43.560Z,1.65
2023-04-23T17:40:09.923Z,1.78
2023-04-23T17:42:36.297Z,1.90
2023-04-23T17:45:02.614Z,1.80
2023-04-23T17:47:29.061Z,2.09
2023-04-23T17:49:55.414Z,2.06
2023-04-23T17:52:21.776Z,2.00
2023-04-23T17:54:48.126Z,2.24
2023-04-23T17:57:14.435Z,2.15
2023-04-23T17:59:40.875Z,2.32
2023-04-23T18:02:07.455Z,2.27
2023-04-23T18:04:33.925Z,2.39
2023-04-23T18:07:00.285Z,2.55
2023-04-23T18:09:26.628Z,2.47
2023-04-23T18:11:52.960Z,2.39
2023-04-23T18:14:19.340Z,2.67
2023-04-23T18:16:45.759Z,2.69
2023-04-23T18:19:12.125Z,2.56
2023-04-23T18:21:38.506Z,2.50
2023-04-23T18:24:04.901Z,2.62
2023-04-23T18:26:31.258Z,2.73
2023-04-23T18:28:57.642Z,2.48
2023-04-23T18:31:24.013Z,2.62
2023-04-23T18:33:50.403Z,2.77
2023-04-23T18:36:16.750Z,2.98
2023-04-23T18:38:43.110Z,2.93
2023-04-23T18:41:09.415Z,3.06
2023-04-23T18:43:35.738Z,2.98
2023-04-23T18:46:02.192Z,3.20
2023-04-23T18:48:28.654Z,2.98
2023-04-23T18:50:55.015Z,3.06
2023-04-23T18:53:22.269Z,3.04
2023-04-23T18:55:48.660Z,3.02
2023-04-23T18:58:14.956Z,3.09
2023-04-23T19:00:41.434Z,2.91
2023-04-23T19:03:19.957Z,3.37
2023-04-23T19:05:52.956Z,3.30
2023-04-23T19:08:19.384Z,3.18
2023-04-23T19:10:45.701Z,3.34
2023-04-23T19:13:12.041Z,3.33
2023-04-23T19:15:38.531Z,3.30
2023-04-23T19:18:04.995Z,3.35
2023-04-23T19:20:31.493Z,3.38
2023-04-23T19:22:57.932Z,3.57
2023-04-23T19:25:24.316Z,3.40
2023-04-23T19:27:50.625Z,3.17
2023-04-23T19:30:16.979Z,3.47
2023-04-23T19:32:43.442Z,3.39
2023-04-23T19:35:09.785Z,3.13
2023-04-23T19:37:36.149Z,3.12
2023-04-23T19:40:02.535Z,3.31
2023-04-23T19:42:28.926Z,3.24
2023-04-23T19:44:55.232Z,3.07
2023-04-23T19:47:21.586Z,3.14
2023-04-23T19:49:47.910Z,2.99
2023-04-23T19:52:14.272Z,3.14
2023-04-23T19:54:40.639Z,3.13
2023-04-23T19:57:06.954Z,3.08
2023-04-23T19:59:33.318Z,2.72
2023-04-23T20:01:59.697Z,2.93
2023-04-23T20:04:26.121Z,2.93
2023-04-23T20:06:52.615Z,2.82
2023-04-23T20:09:18.965Z,2.86
2023-04-23T20:11:45.345Z,2.93
2023-04-23T20:14:11.997Z,3.04
2023-04-23T20:16:38.309Z,2.78
2023-04-23T20:19:04.703Z,2.89
2023-04-23T20:21:31.023Z,2.72
2023-04-23T20:23:57.354Z,2.76
2023-04-23T20:26:23.664Z,2.79
2023-04-23T20:28:50.004Z,2.74
2023-04-23T20:31:16.375Z,2.92
2023-04-23T20:33:42.718Z,2.85
2023-04-23T20:36:09.043Z,2.76
2023-04-23T20:38:35.381Z,2.76
2023-04-23T20:41:01.748Z,2.83
2023-04-23T20:43:28.135Z,2.67
2023-04-23T20:45:54.534Z,2.68
2023-04-23T20:48:20.896Z,2.77
2023-04-23T20:50:47.211Z,2.84
2023-04-23T20:53:13.559Z,2.83
2023-04-23T20:55:39.984Z,2.71
2023-04-23T20:58:06.320Z,2.59
2023-04-23T21:00:32.691Z,2.72
2023-04-23T21:02:59.118Z,2.83
2023-04-23T21:05:25.539Z,2.56
2023-04-23T21:07:51.847Z,2.75
2023-04-23T21:10:18.162Z,2.62
2023-04-23T21:12:44.492Z,2.86
2023-04-23T21:15:10.847Z,2.68
2023-04-23T21:17:37.226Z,2.87
2023-04-23T21:20:03.559Z,2.90
2023-04-23T21:22:29.868Z,2.72
2023-04-23T21:24:56.326Z,2.82
2023-04-23T21:27:22.642Z,2.74
2023-04-23T21:29:48.962Z,2.77
2023-04-23T21:32:15.275Z,2.72
2023-04-23T21:34:41.670Z,2.38
2023-04-23T21:37:07.976Z,2.73
2023-04-23T21:39:34.336Z,2.58
2023-04-23T21:42:00.813Z,2.66
2023-04-23T21:44:27.114Z,2.53
2023-04-23T21:46:53.488Z,2.53
2023-04-23T21:49:19.955Z,2.72
2023-04-23T21:51:46.282Z,2.59
2023-04-23T21:54:12.615Z,2.38
2023-04-23T21:56:38.947Z,2.66
2023-04-23T21:59:05.264Z,2.66
2023-04-23T22:01:33.640Z,2.63
2023-04-23T22:04:01.501Z,2.88
2023-04-23T22:06:27.949Z,2.60
2023-04-23T22:08:54.258Z,2.63
2023-04-23T22:11:20.605Z,2.57
2023-04-23T22:13:46.964Z,2.67
2023-04-23T22:16:26.783Z,2.68
2023-04-23T22:18:54.288Z,2.50
2023-04-23T22:21:20.652Z,2.60
2023-04-23T22:23:47.101Z,2.66
2023-04-23T22:26:13.404Z,2.51
2023-04-23T22:28:39.705Z,2.46
2023-04-23T22:31:06.028Z,2.59
2023-04-23T22:33:32.381Z,2.36
2023-04-23T22:35:58.755Z,2.45
2023-04-23T22:38:25.085Z,2.50
2023-04-23T22:40:51.383Z,2.74
2023-04-23T22:43:17.729Z,2.66
2023-04-23T22:45:44.114Z,2.52
2023-04-23T22:48:10.526Z,2.30
2023-04-23T22:50:36.903Z,2.47
2023-04-23T22:53:03.273Z,2.29
2023-04-23T22:55:29.562Z,2.39
2023-04-23T22:57:55.887Z,2.44
2023-04-23T23:00:22.243Z,2.40
2023-04-23T23:02:48.895Z,2.41
2023-04-23T23:05:15.319Z,2.40
2023-04-23T23:07:41.802Z,2.23
2023-04-23T23:10:08.142Z,2.27
2023-04-23T23:12:34.480Z,2.19
2023-04-23T23:15:00.820Z,2.42
2023-04-23T23:17:27.199Z,2.34
2023-04-23T23:19:53.558Z,2.23
2023-04-23T23:22:19.938Z,2.37
2023-04-23T23:24:46.303Z,2.20
2023-04-23T23:27:12.667Z,2.16
2023-04-23T23:29:39.030Z,2.16
2023-04-23T23:32:05.379Z,2.07
2023-04-23T23:34:31.836Z,2.37
2023-04-23T23:36:58.208Z,2.10
2023-04-23T23:39:24.527Z,2.17
2023-04-23T23:41:50.850Z,2.02
2023-04-23T23:44:17.158Z,1.83
2023-04-23T23:46:43.500Z,2.14
2023-04-23T23:49:09.821Z,2.06
2023-04-23T23:51:36.208Z,2.17
2023-04-23T23:54:02.534Z,2.07
2023-04-23T23:56:28.842Z,1.97
2023-04-23T23:58:55.216Z,2.02
